Time;durP1;ratioP1;P1;durP2;ratioP2;P2;SDS_P1;SDS_P2;PMS_P1;PMS_P2;Temp;Humidity;BMP_temperature;BMP_pressure;BME280_temperature;BME280_humidity;BME280_pressure;Samples;Min_cycle;Max_cycle;Signal;HPM_P1;HPM_P2
2021/06/09 00:02:20;;;;;;;12.88;6.68;;;;;;;20.05;59.77;100203.22;5054186;28;20041;-76
2021/06/09 00:04:48;;;;;;;11.77;6.30;;;;;;;19.92;60.70;100203.63;5053935;28;20044;-76
2021/06/09 00:07:19;;;;;;;9.13;5.78;;;;;;;20.08;59.83;100209.22;5054262;28;20048;-76
2021/06/09 00:09:47;;;;;;;11.32;7.00;;;;;;;20.25;58.77;100202.06;5053982;28;20397;-74
2021/06/09 00:12:15;;;;;;;9.90;6.47;;;;;;;20.37;58.76;100203.56;5054088;28;20471;-75
2021/06/09 00:14:43;;;;;;;9.15;6.40;;;;;;;20.35;58.75;100210.97;5053598;28;20094;-75
2021/06/09 00:17:11;;;;;;;11.73;6.97;;;;;;;20.53;57.54;100214.53;5054170;28;20053;-75
2021/06/09 00:19:39;;;;;;;10.40;6.45;;;;;;;20.35;58.11;100208.25;5053708;28;20045;-75
2021/06/09 00:22:07;;;;;;;12.05;6.80;;;;;;;20.36;58.53;100207.25;5053972;28;20063;-75
2021/06/09 00:24:38;;;;;;;10.98;6.53;;;;;;;20.18;59.52;100209.13;5053686;28;20053;-75
2021/06/09 00:27:06;;;;;;;9.57;6.15;;;;;;;20.29;58.41;100211.59;5053726;28;20051;-75
2021/06/09 00:29:34;;;;;;;10.77;5.50;;;;;;;20.11;57.59;100214.31;5053448;28;20067;-76
2021/06/09 00:32:02;;;;;;;9.65;6.57;;;;;;;20.14;58.30;100213.13;5053552;28;20483;-75
2021/06/09 00:34:30;;;;;;;9.75;6.40;;;;;;;19.99;58.89;100215.53;5053767;28;20047;-75
2021/06/09 00:36:57;;;;;;;11.02;5.95;;;;;;;20.05;57.36;100219.47;5053220;28;20098;-75
2021/06/09 00:39:25;;;;;;;8.32;5.72;;;;;;;19.89;57.56;100212.91;5053538;28;20045;-75
2021/06/09 00:41:54;;;;;;;8.18;5.60;;;;;;;19.96;57.28;100215.84;5053146;28;20068;-75
2021/06/09 00:44:22;;;;;;;8.93;5.50;;;;;;;19.81;57.74;100212.81;5053643;28;20438;-75
2021/06/09 00:46:49;;;;;;;7.85;5.43;;;;;;;19.79;57.10;100204.00;5053243;28;20060;-75
2021/06/09 00:49:17;;;;;;;8.90;5.50;;;;;;;20.01;55.89;100217.09;5053432;28;20048;-74
2021/06/09 00:51:45;;;;;;;9.10;5.22;;;;;;;20.02;55.90;100216.06;5053167;28;20091;-74
2021/06/09 00:54:13;;;;;;;8.32;5.65;;;;;;;19.88;56.72;100208.50;5053312;28;20350;-74
2021/06/09 00:56:41;;;;;;;8.55;5.50;;;;;;;19.78;56.58;100202.28;5052847;28;20045;-74
2021/06/09 00:59:10;;;;;;;11.27;5.65;;;;;;;19.73;57.05;100201.91;5053454;28;20041;-76
2021/06/09 01:01:38;;;;;;;9.18;5.50;;;;;;;19.64;56.79;100194.69;5053084;28;20406;-76
2021/06/09 01:04:06;;;;;;;7.90;5.95;;;;;;;19.80;56.27;100205.72;5051798;28;20048;-76
2021/06/09 01:06:34;;;;;;;10.02;5.80;;;;;;;19.65;57.09;100194.53;5053163;28;20045;-76
2021/06/09 01:09:02;;;;;;;7.53;5.28;;;;;;;19.62;57.56;100194.00;5053108;28;20045;-76
2021/06/09 01:11:30;;;;;;;7.82;5.03;;;;;;;19.61;57.49;100195.84;5053268;28;20486;-76
2021/06/09 01:13:58;;;;;;;10.70;5.75;;;;;;;19.60;58.02;100188.75;5052918;28;20478;-76
2021/06/09 01:16:27;;;;;;;8.18;5.10;;;;;;;19.64;57.53;100191.97;5052914;28;20044;-76
2021/06/09 01:18:55;;;;;;;7.97;5.15;;;;;;;19.73;56.87;100183.81;5052687;28;20045;-76
2021/06/09 01:21:26;;;;;;;7.70;4.95;;;;;;;19.72;57.07;100183.97;5052801;28;20544;-76
2021/06/09 01:23:57;;;;;;;9.85;5.32;;;;;;;19.64;57.77;100181.16;5052949;28;20048;-76
2021/06/09 01:26:26;;;;;;;8.77;5.50;;;;;;;19.56;57.92;100181.06;5052994;28;20037;-76
2021/06/09 01:28:54;;;;;;;10.23;5.90;;;;;;;19.58;58.40;100179.06;5052688;28;20041;-76
2021/06/09 01:31:25;;;;;;;8.63;4.75;;;;;;;19.48;58.91;100175.53;5052842;28;20048;-75
2021/06/09 01:33:53;;;;;;;8.13;5.30;;;;;;;19.49;58.59;100178.06;5051627;28;20063;-75
2021/06/09 01:36:25;;;;;;;9.02;5.20;;;;;;;19.78;57.80;100180.63;5053064;28;20064;-75
2021/06/09 01:38:53;;;;;;;9.68;5.13;;;;;;;19.73;58.20;100180.25;5052764;28;20180;-75
2021/06/09 01:41:22;;;;;;;8.57;5.38;;;;;;;19.68;58.24;100179.84;5052926;28;20045;-74
2021/06/09 01:43:51;;;;;;;9.15;5.53;;;;;;;19.58;58.77;100179.91;5052763;28;20069;-75
2021/06/09 01:46:20;;;;;;;8.18;5.68;;;;;;;19.68;58.43;100171.72;5056754;28;20367;-74
2021/06/09 01:48:48;;;;;;;7.70;5.75;;;;;;;19.67;58.16;100179.00;5056682;28;20061;-75
2021/06/09 01:51:18;;;;;;;9.90;5.60;;;;;;;19.61;58.62;100185.03;5057208;28;20044;-75
2021/06/09 01:53:47;;;;;;;9.07;5.50;;;;;;;19.24;59.37;100182.34;5056767;28;20037;-76
2021/06/09 01:56:16;;;;;;;7.47;5.15;;;;;;;19.13;60.42;100187.94;5056666;28;20045;-76
2021/06/09 01:58:43;;;;;;;6.85;5.18;;;;;;;19.16;60.49;100190.34;5056252;28;20045;-74
2021/06/09 02:01:12;;;;;;;10.00;5.50;;;;;;;19.11;60.88;100201.63;5056643;28;20051;-76
2021/06/09 02:03:42;;;;;;;7.45;5.15;;;;;;;19.13;60.51;100202.31;5056427;28;20493;-77
2021/06/09 02:06:09;;;;;;;8.07;5.35;;;;;;;19.06;61.03;100192.25;5056590;28;20055;-76
2021/06/09 02:08:37;;;;;;;12.00;5.85;;;;;;;18.98;61.57;100192.97;5056466;28;20060;-74
2021/06/09 02:11:06;;;;;;;9.98;6.00;;;;;;;18.97;62.08;100187.72;5056377;28;20111;-74
2021/06/09 02:13:35;;;;;;;8.40;5.75;;;;;;;18.97;61.94;100195.81;5056257;28;20103;-74
2021/06/09 02:16:03;;;;;;;7.50;5.70;;;;;;;18.86;62.58;100184.19;5056009;28;20055;-74
2021/06/09 02:18:31;;;;;;;8.65;5.75;;;;;;;18.84;62.48;100191.59;5056425;28;20045;-74
2021/06/09 02:21:00;;;;;;;8.95;5.95;;;;;;;18.74;63.07;100189.94;5055972;28;20098;-75
2021/06/09 02:23:31;;;;;;;8.45;5.60;;;;;;;18.67;63.53;100191.50;5056208;28;20493;-75
2021/06/09 02:26:00;;;;;;;9.73;6.35;;;;;;;18.70;63.46;100194.75;5056092;28;20037;-76
2021/06/09 02:28:32;;;;;;;9.88;5.95;;;;;;;18.77;63.33;100193.19;5056208;28;20128;-76
2021/06/09 02:31:00;;;;;;;7.13;5.70;;;;;;;18.83;63.07;100189.91;5055985;28;20398;-76
2021/06/09 02:33:28;;;;;;;9.65;5.97;;;;;;;18.71;63.55;100190.19;5056223;28;20080;-76
2021/06/09 02:35:58;;;;;;;10.38;6.18;;;;;;;18.72;63.44;100192.78;5055756;28;20059;-75
2021/06/09 02:38:26;;;;;;;10.48;6.57;;;;;;;18.69;63.78;100184.94;5055954;28;20045;-75
2021/06/09 02:40:56;;;;;;;7.95;6.20;;;;;;;18.96;62.68;100188.72;5055581;28;20041;-75
2021/06/09 02:43:30;;;;;;;8.50;6.35;;;;;;;19.00;62.42;100196.38;5055880;28;20072;-74
2021/06/09 02:46:08;;;;;;;9.88;5.97;;;;;;;18.74;63.16;100188.09;5055378;28;20107;-74
2021/06/09 02:48:40;;;;;;;10.15;6.03;;;;;;;18.66;63.65;100182.56;5055700;28;20044;-75
2021/06/09 02:51:09;;;;;;;9.10;6.03;;;;;;;18.66;63.49;100179.84;5055969;28;20045;-74
2021/06/09 02:53:43;;;;;;;7.85;5.82;;;;;;;18.88;62.79;100186.75;5055826;28;20440;-74
2021/06/09 02:56:19;;;;;;;9.85;6.20;;;;;;;18.81;63.20;100181.06;5055719;28;20045;-74
2021/06/09 02:58:53;;;;;;;9.73;5.97;;;;;;;18.88;62.57;100178.63;5055345;28;20049;-75
2021/06/09 03:01:29;;;;;;;9.48;6.07;;;;;;;18.70;63.61;100178.53;5055443;28;20124;-75
2021/06/09 03:04:08;;;;;;;9.40;5.90;;;;;;;18.63;64.04;100177.41;5055482;28;20100;-74
2021/06/09 03:06:44;;;;;;;8.65;6.35;;;;;;;18.60;64.16;100172.28;5055458;28;20040;-75
2021/06/09 03:09:22;;;;;;;8.40;6.28;;;;;;;18.57;64.48;100178.84;5055297;28;20049;-74
2021/06/09 03:11:56;;;;;;;7.97;6.30;;;;;;;18.73;64.03;100178.28;5054922;28;20120;-74
2021/06/09 03:17:16;;;;;;;11.65;7.10;;;;;;;18.78;63.63;100184.06;5054818;28;20051;-75
2021/06/09 03:19:49;;;;;;;10.23;6.27;;;;;;;18.55;64.89;100185.38;5055311;28;20045;-75
2021/06/09 03:22:25;;;;;;;9.30;6.40;;;;;;;18.59;64.59;100186.78;5055288;28;20049;-74
2021/06/09 03:24:56;;;;;;;10.43;6.65;;;;;;;18.64;64.43;100184.53;5055079;28;20041;-75
2021/06/09 03:27:31;;;;;;;15.13;6.75;;;;;;;18.60;63.96;100177.69;5055158;28;20067;-75
2021/06/09 03:30:06;;;;;;;12.07;7.32;;;;;;;18.51;64.19;100184.81;5053252;28;20071;-76
2021/06/09 03:32:39;;;;;;;10.43;7.35;;;;;;;18.36;64.98;100185.41;5054732;28;20041;-75
2021/06/09 03:35:14;;;;;;;9.35;7.10;;;;;;;18.42;65.05;100188.38;5054557;28;20494;-74
2021/06/09 03:37:47;;;;;;;11.32;7.30;;;;;;;18.79;64.08;100187.63;5054804;28;20482;-74
2021/06/09 03:40:18;;;;;;;11.32;7.03;;;;;;;19.30;62.08;100191.69;5054963;28;20046;-74
2021/06/09 03:42:51;;;;;;;9.93;7.10;;;;;;;19.84;60.04;100190.84;5054658;28;20128;-77
2021/06/09 03:45:24;;;;;;;11.63;6.80;;;;;;;20.51;57.82;100197.59;5054401;28;20135;-75
2021/06/09 03:47:55;;;;;;;11.13;7.10;;;;;;;20.51;57.62;100202.16;5054597;28;20148;-75
2021/06/09 03:50:25;;;;;;;11.30;6.75;;;;;;;20.68;56.53;100200.44;5054558;28;20041;-75
2021/06/09 03:52:53;;;;;;;10.77;6.68;;;;;;;21.44;54.14;100195.13;5054320;28;20037;-74
2021/06/09 03:55:23;;;;;;;10.15;6.75;;;;;;;21.48;53.60;100193.78;5054371;28;20500;-74
2021/06/09 03:57:54;;;;;;;8.88;6.20;;;;;;;21.87;52.10;100187.78;5054442;28;20437;-75
2021/06/09 04:00:23;;;;;;;11.13;6.10;;;;;;;22.26;51.35;100183.44;5054759;28;20162;-74
2021/06/09 04:02:53;;;;;;;10.10;6.28;;;;;;;22.56;50.27;100183.78;5054099;28;20047;-75
2021/06/09 04:05:23;;;;;;;10.48;6.35;;;;;;;23.16;49.09;100185.22;5054448;28;20041;-74
2021/06/09 04:07:54;;;;;;;8.80;6.00;;;;;;;23.21;48.93;100189.13;5053373;28;20045;-76
2021/06/09 04:10:23;;;;;;;9.75;6.15;;;;;;;23.59;47.66;100181.16;5054172;28;20091;-75
2021/06/09 04:12:50;;;;;;;11.02;6.40;;;;;;;23.84;46.93;100185.47;5054031;28;20037;-75
2021/06/09 04:15:20;;;;;;;11.27;6.03;;;;;;;23.88;46.64;100186.78;5053964;28;20056;-75
2021/06/09 04:17:49;;;;;;;9.60;6.25;;;;;;;24.14;46.23;100191.06;5053975;28;20402;-76
2021/06/09 04:20:25;;;;;;;9.63;6.18;;;;;;;24.46;45.38;100179.91;5054018;28;20049;-76
2021/06/09 04:22:53;;;;;;;7.80;5.35;;;;;;;25.09;43.87;100178.63;5053723;28;20048;-77
2021/06/09 04:25:21;;;;;;;6.97;5.18;;;;;;;25.19;43.70;100181.09;5054050;28;20478;-76
2021/06/09 04:27:51;;;;;;;6.53;5.43;;;;;;;25.18;43.69;100183.97;5053626;28;20045;-76
2021/06/09 04:30:22;;;;;;;8.60;6.10;;;;;;;25.53;42.60;100177.75;5053559;28;20136;-75
2021/06/09 04:32:57;;;;;;;11.27;5.80;;;;;;;25.39;42.60;100175.91;5053464;28;20565;-74
2021/06/09 04:35:28;;;;;;;9.05;5.78;;;;;;;24.88;43.89;100183.94;5053661;28;20048;-75
2021/06/09 04:37:58;;;;;;;8.05;5.53;;;;;;;25.32;42.95;100180.41;5053348;28;20049;-75
2021/06/09 04:40:27;;;;;;;10.02;5.82;;;;;;;26.33;40.42;100178.63;5053612;28;20044;-74
2021/06/09 04:43:00;;;;;;;9.63;6.05;;;;;;;26.14;41.02;100186.44;5053322;28;20052;-74
2021/06/09 04:45:30;;;;;;;11.68;6.03;;;;;;;26.43;40.47;100176.44;5053292;28;20076;-75
2021/06/09 04:47:58;;;;;;;10.18;5.75;;;;;;;26.03;40.72;100186.13;5052985;28;20045;-75
2021/06/09 04:50:29;;;;;;;8.13;5.82;;;;;;;26.49;40.24;100175.66;5053145;28;20133;-75
2021/06/09 04:53:10;;;;;;;8.30;5.60;;;;;;;26.61;40.00;100170.50;5052661;28;20041;-75
2021/06/09 04:55:39;;;;;;;8.73;5.68;;;;;;;26.89;39.52;100181.44;5053396;28;20071;-74
2021/06/09 04:58:07;;;;;;;7.13;5.80;;;;;;;26.73;39.26;100177.97;5052562;28;20041;-75
2021/06/09 05:00:39;;;;;;;8.75;5.55;;;;;;;26.71;39.42;100177.31;5052459;28;20110;-74
2021/06/09 05:03:08;;;;;;;8.93;5.60;;;;;;;26.91;38.60;100179.34;5052952;28;20068;-75
2021/06/09 05:05:37;;;;;;;10.50;5.93;;;;;;;27.76;38.11;100175.44;5053129;28;20083;-75
2021/06/09 05:08:05;;;;;;;9.70;5.72;;;;;;;27.91;37.21;100179.69;5052781;28;20466;-75
2021/06/09 05:10:35;;;;;;;9.80;5.57;;;;;;;27.85;37.37;100174.19;5052840;28;20052;-75
2021/06/09 05:13:06;;;;;;;9.80;5.95;;;;;;;28.18;37.19;100175.13;5052663;28;20470;-75
2021/06/09 05:15:38;;;;;;;9.07;6.28;;;;;;;28.39;36.13;100171.38;5053095;28;20055;-75
2021/06/09 05:18:15;;;;;;;9.63;5.47;;;;;;;27.86;37.25;100171.25;5052747;28;20044;-75
2021/06/09 05:20:47;;;;;;;10.60;5.90;;;;;;;28.30;36.41;100178.13;5052852;28;20120;-75
2021/06/09 05:23:19;;;;;;;12.07;5.85;;;;;;;28.49;36.67;100174.53;5052495;28;20075;-74
2021/06/09 05:25:50;;;;;;;9.85;6.45;;;;;;;28.56;35.81;100176.44;5051705;28;20049;-76
2021/06/09 05:28:20;;;;;;;8.57;6.03;;;;;;;28.78;35.68;100180.66;5052638;28;20048;-76
2021/06/09 05:30:52;;;;;;;12.23;6.20;;;;;;;28.91;35.35;100177.91;5052730;28;20102;-76
2021/06/09 05:33:21;;;;;;;13.13;6.17;;;;;;;28.77;35.12;100184.47;5052520;28;20120;-76
2021/06/09 05:35:52;;;;;;;9.68;5.82;;;;;;;28.92;35.07;100182.34;5052493;28;20336;-76
2021/06/09 05:38:21;;;;;;;9.70;6.45;;;;;;;29.17;34.54;100178.94;5052323;28;20067;-76
2021/06/09 05:40:49;;;;;;;9.82;6.18;;;;;;;29.16;34.84;100177.25;5052675;28;20452;-76
2021/06/09 05:43:20;;;;;;;10.40;6.50;;;;;;;29.37;34.52;100171.47;5052238;28;20081;-76
2021/06/09 05:45:49;;;;;;;9.15;5.88;;;;;;;29.66;34.31;100174.78;5052865;28;20405;-76
2021/06/09 05:48:19;;;;;;;8.40;5.65;;;;;;;29.94;33.29;100167.00;5052284;28;20041;-76
2021/06/09 05:50:52;;;;;;;10.55;5.57;;;;;;;30.56;31.86;100170.81;5052773;28;20505;-76
2021/06/09 05:53:22;;;;;;;8.40;5.70;;;;;;;30.38;32.42;100179.00;5052307;28;20045;-76
2021/06/09 05:55:52;;;;;;;10.57;5.47;;;;;;;30.47;32.21;100174.91;5052556;28;20116;-76
2021/06/09 05:58:22;;;;;;;8.82;5.47;;;;;;;30.41;31.63;100182.16;5051115;28;20135;-76
2021/06/09 06:01:10;;;;;;;10.23;5.93;;;;;;;30.55;32.06;100182.91;5052262;28;20084;-76
2021/06/09 06:03:41;;;;;;;8.52;5.45;;;;;;;30.48;32.14;100182.09;5052524;28;20124;-76
2021/06/09 06:06:11;;;;;;;6.18;5.15;;;;;;;31.03;31.28;100183.13;5052280;28;20456;-76
2021/06/09 06:08:42;;;;;;;9.15;5.78;;;;;;;30.92;31.69;100185.78;5052289;28;20099;-76
2021/06/09 06:11:12;;;;;;;8.15;5.30;;;;;;;30.69;32.17;100181.75;5052114;28;20048;-76
2021/06/09 06:13:42;;;;;;;12.90;6.13;;;;;;;31.01;31.45;100187.16;5052453;28;20049;-76
2021/06/09 06:16:14;;;;;;;11.27;5.53;;;;;;;30.86;32.21;100187.50;5052089;28;20483;-76
2021/06/09 06:18:43;;;;;;;10.02;6.03;;;;;;;30.59;32.17;100186.88;5052385;28;20041;-76
2021/06/09 06:21:17;;;;;;;9.00;5.57;;;;;;;31.03;31.43;100190.53;5052087;28;20056;-76
2021/06/09 06:23:45;;;;;;;11.02;5.55;;;;;;;31.40;30.77;100193.34;5052405;28;20398;-76
2021/06/09 06:26:16;;;;;;;11.30;5.82;;;;;;;30.97;31.24;100191.44;5052188;28;20374;-76
2021/06/09 06:28:45;;;;;;;10.57;5.35;;;;;;;31.47;30.81;100188.63;5052329;28;20055;-76
2021/06/09 06:31:16;;;;;;;7.40;5.30;;;;;;;32.30;29.09;100197.06;5054013;28;20041;-76
2021/06/09 06:33:46;;;;;;;8.40;5.35;;;;;;;32.49;27.98;100191.47;5055782;28;20098;-76
2021/06/09 06:36:18;;;;;;;7.82;4.82;;;;;;;32.06;28.89;100189.78;5055613;28;20041;-76
2021/06/09 06:38:46;;;;;;;8.80;5.00;;;;;;;32.03;29.05;100196.56;5056174;28;20442;-76
2021/06/09 06:41:15;;;;;;;8.20;5.20;;;;;;;32.26;29.23;100201.34;5055767;28;20182;-76
2021/06/09 06:43:44;;;;;;;8.27;5.10;;;;;;;32.04;28.88;100195.53;5055810;28;20523;-74
2021/06/09 06:46:13;;;;;;;7.75;4.63;;;;;;;31.47;29.55;100194.13;5055530;28;20056;-76
2021/06/09 06:48:47;;;;;;;8.27;4.95;;;;;;;31.08;30.44;100207.25;5055944;28;20056;-76
2021/06/09 06:51:18;;;;;;;9.80;5.05;;;;;;;31.36;29.69;100198.47;5055326;28;20052;-76
2021/06/09 06:53:47;;;;;;;7.53;4.80;;;;;;;31.28;30.55;100194.13;5055713;28;20049;-76
2021/06/09 06:56:17;;;;;;;8.55;4.88;;;;;;;31.11;30.69;100200.44;5055172;28;20103;-76
2021/06/09 06:58:50;;;;;;;8.65;4.57;;;;;;;30.58;30.24;100189.84;5055192;28;20061;-76
2021/06/09 07:01:18;;;;;;;;;;;;;;;29.73;33.01;100194.84;5055509;28;20037;-76
2021/06/09 07:03:47;;;;;;;9.63;5.00;;;;;;;29.77;33.08;100190.56;5055330;28;19927;-76
2021/06/09 07:06:17;;;;;;;11.90;5.03;;;;;;;29.51;33.62;100197.84;5055046;28;20041;-76
2021/06/09 07:08:47;;;;;;;9.52;4.57;;;;;;;29.62;33.86;100191.69;5055380;28;20037;-76
2021/06/09 07:11:16;;;;;;;9.25;5.00;;;;;;;29.74;34.00;100188.28;5054895;28;20517;-76
2021/06/09 07:13:45;;;;;;;9.13;4.90;;;;;;;29.68;33.56;100183.63;5055045;28;20132;-76
2021/06/09 07:16:13;;;;;;;10.15;4.95;;;;;;;29.43;32.79;100189.81;5054612;28;20048;-76
2021/06/09 07:18:44;;;;;;;10.05;5.13;;;;;;;29.37;33.92;100198.94;5054882;28;20045;-76
2021/06/09 07:21:17;;;;;;;10.57;4.75;;;;;;;29.11;34.53;100201.75;5054746;28;20120;-76
2021/06/09 07:23:45;;;;;;;9.48;5.20;;;;;;;28.85;33.97;100195.19;5054962;28;20049;-76
2021/06/09 07:26:14;;;;;;;9.77;5.30;;;;;;;28.75;34.12;100181.06;5054486;28;20132;-76
2021/06/09 07:28:46;;;;;;;9.50;4.90;;;;;;;28.73;33.79;100196.91;5054929;28;20045;-76
2021/06/09 07:31:16;;;;;;;8.93;4.80;;;;;;;28.69;34.55;100191.00;5053217;28;20053;-76
2021/06/09 07:33:45;;;;;;;11.88;5.28;;;;;;;28.54;34.39;100190.34;5055005;28;20045;-76
2021/06/09 07:36:15;;;;;;;10.68;5.07;;;;;;;28.67;34.35;100189.53;5054383;28;20044;-76
2021/06/09 07:38:49;;;;;;;7.03;4.55;;;;;;;28.93;34.21;100194.16;5054666;28;20402;-76
2021/06/09 07:41:18;;;;;;;12.10;4.63;;;;;;;28.49;34.43;100193.75;5054316;28;20041;-75
2021/06/09 07:43:48;;;;;;;9.43;5.32;;;;;;;28.46;35.26;100205.13;5053957;28;20378;-76
2021/06/09 07:46:21;;;;;;;10.68;5.00;;;;;;;28.44;34.73;100201.75;5054530;28;20064;-76
2021/06/09 07:48:51;;;;;;;8.70;4.65;;;;;;;28.40;34.08;100196.91;5054690;28;20045;-76
2021/06/09 07:51:20;;;;;;;9.30;4.55;;;;;;;28.35;33.44;100197.50;5054562;28;20398;-76
2021/06/09 07:53:51;;;;;;;10.23;4.47;;;;;;;28.49;32.98;100199.22;5054463;28;20049;-76
2021/06/09 07:56:21;;;;;;;7.68;4.72;;;;;;;28.51;33.50;100201.75;5054265;28;20052;-76
2021/06/09 07:58:50;;;;;;;9.25;5.03;;;;;;;28.48;33.90;100200.28;5054532;28;20047;-76
2021/06/09 08:01:18;;;;;;;9.13;4.35;;;;;;;28.75;31.09;100203.84;5054020;28;20106;-75
2021/06/09 08:03:46;;;;;;;9.98;4.20;;;;;;;28.80;30.42;100203.25;5054261;28;20453;-75
2021/06/09 08:06:16;;;;;;;7.53;4.10;;;;;;;28.92;30.34;100198.81;5054118;28;20408;-75
2021/06/09 08:08:45;;;;;;;10.07;4.47;;;;;;;28.94;30.37;100196.69;5054192;28;20091;-75
2021/06/09 08:11:15;;;;;;;7.65;4.20;;;;;;;28.92;31.34;100198.81;5053782;28;20397;-77
2021/06/09 08:13:43;;;;;;;6.53;4.45;;;;;;;29.04;31.35;100197.09;5054037;28;20398;-76
2021/06/09 08:16:13;;;;;;;8.43;4.25;;;;;;;29.05;29.54;100192.47;5053527;28;20116;-76
2021/06/09 08:18:41;;;;;;;6.50;4.03;;;;;;;28.90;31.27;100192.69;5054081;28;20052;-76
2021/06/09 08:21:12;;;;;;;10.00;4.85;;;;;;;28.97;31.53;100193.53;5053823;28;20132;-76
2021/06/09 08:23:41;;;;;;;6.38;4.25;;;;;;;29.04;30.92;100191.59;5054033;28;20065;-76
2021/06/09 08:26:11;;;;;;;6.78;4.35;;;;;;;29.11;31.42;100185.28;5053570;28;20128;-76
2021/06/09 08:28:43;;;;;;;8.07;4.45;;;;;;;29.09;31.14;100188.25;5053731;28;20132;-76
2021/06/09 08:31:13;;;;;;;9.13;5.47;;;;;;;29.25;30.67;100192.44;5053793;28;20059;-76
2021/06/09 08:33:42;;;;;;;10.43;4.70;;;;;;;29.31;30.49;100188.81;5053746;28;20080;-76
2021/06/09 08:36:11;;;;;;;6.90;4.43;;;;;;;29.22;30.65;100187.34;5053424;28;20094;-75
2021/06/09 08:38:40;;;;;;;9.25;4.32;;;;;;;29.23;29.94;100194.53;5053809;28;20048;-75
2021/06/09 08:41:10;;;;;;;7.78;4.20;;;;;;;29.09;29.07;100190.97;5053321;28;20069;-75
2021/06/09 08:43:41;;;;;;;6.97;3.78;;;;;;;29.26;28.96;100192.22;5053772;28;20064;-74
2021/06/09 08:46:10;;;;;;;9.38;4.00;;;;;;;29.20;29.08;100194.97;5053768;28;20053;-75
2021/06/09 08:48:41;;;;;;;8.20;4.00;;;;;;;29.28;28.53;100186.50;5053361;28;20045;-75
2021/06/09 08:51:10;;;;;;;5.50;3.80;;;;;;;29.14;27.05;100187.56;5053571;28;20044;-75
2021/06/09 08:53:42;;;;;;;9.02;4.25;;;;;;;29.27;27.21;100195.81;5052996;28;20045;-76
2021/06/09 08:56:11;;;;;;;5.57;3.30;;;;;;;29.49;27.54;100191.75;5053448;28;20048;-78
2021/06/09 08:58:41;;;;;;;8.18;3.90;;;;;;;29.39;27.11;100193.22;5052302;28;20414;-75
2021/06/09 09:01:15;;;;;;;8.52;4.10;;;;;;;29.14;27.08;100196.66;5053207;28;20053;-77
2021/06/09 09:03:47;;;;;;;7.00;4.00;;;;;;;29.03;27.47;100192.66;5053168;28;20037;-75
2021/06/09 09:06:15;;;;;;;5.32;3.72;;;;;;;29.31;26.93;100192.41;5052737;28;20048;-77
2021/06/09 09:08:43;;;;;;;5.65;3.28;;;;;;;29.44;26.63;100202.53;5053173;28;20091;-75
2021/06/09 09:11:11;;;;;;;6.63;4.22;;;;;;;29.59;26.45;100205.88;5053113;28;20048;-76
2021/06/09 09:13:39;;;;;;;4.97;3.65;;;;;;;29.86;26.93;100205.75;5052991;28;20041;-75
2021/06/09 09:16:08;;;;;;;6.82;3.72;;;;;;;30.09;26.14;100199.72;5053008;28;20128;-75
2021/06/09 09:18:41;;;;;;;5.20;3.60;;;;;;;29.51;26.89;100197.84;5052670;28;20051;-76
2021/06/09 09:21:10;;;;;;;6.28;4.03;;;;;;;29.72;26.98;100195.88;5053213;28;20041;-76
2021/06/09 09:23:45;;;;;;;5.60;4.03;;;;;;;30.01;26.80;100200.78;5053202;28;20061;-76
2021/06/09 09:26:25;;;;;;;7.45;4.47;;;;;;;30.35;26.46;100205.06;5052670;28;20048;-76
2021/06/09 09:29:11;;;;;;;6.45;4.40;;;;;;;30.52;26.22;100205.38;5052771;28;20051;-76
2021/06/09 09:31:49;;;;;;;5.20;3.80;;;;;;;30.14;26.31;100198.00;5053136;28;20041;-76
2021/06/09 09:34:35;;;;;;;7.35;4.00;;;;;;;30.19;25.96;100203.69;5052697;28;20095;-75
2021/06/09 09:37:18;;;;;;;6.97;4.15;;;;;;;30.00;26.23;100198.25;5052823;28;20041;-76
2021/06/09 09:39:48;;;;;;;5.45;3.90;;;;;;;30.03;25.63;100201.44;5053024;28;20033;-76
2021/06/09 09:42:33;;;;;;;5.18;4.00;;;;;;;29.89;26.80;100186.06;5052403;28;20132;-76
2021/06/09 09:45:15;;;;;;;6.18;4.30;;;;;;;30.11;26.70;100187.47;5052634;28;20064;-76
2021/06/09 09:47:45;;;;;;;7.03;4.05;;;;;;;30.47;26.29;100188.66;5052551;28;20049;-76
2021/06/09 09:50:30;;;;;;;6.00;4.30;;;;;;;30.42;26.25;100188.50;5052904;28;20049;-76
2021/06/09 09:53:17;;;;;;;7.28;4.32;;;;;;;30.35;26.47;100188.56;5052719;28;20041;-76
2021/06/09 09:56:07;;;;;;;6.82;4.38;;;;;;;30.19;26.56;100187.16;5052731;28;20127;-75
2021/06/09 09:58:37;;;;;;;8.18;4.05;;;;;;;30.22;26.62;100187.81;5052578;28;20482;-76
2021/06/09 10:01:13;;;;;;;6.38;4.10;;;;;;;30.37;27.13;100182.81;5052358;28;20045;-74
2021/06/09 10:03:44;;;;;;;10.25;4.60;;;;;;;30.45;26.94;100171.53;5052825;28;20051;-74
2021/06/09 10:06:20;;;;;;;6.35;4.07;;;;;;;30.23;27.17;100182.09;5054699;28;20493;-75
2021/06/09 10:08:48;;;;;;;7.22;4.00;;;;;;;30.17;27.05;100188.47;5056534;28;20107;-75
2021/06/09 10:11:17;;;;;;;5.18;4.10;;;;;;;30.26;27.00;100189.03;5056309;28;20098;-75
2021/06/09 10:13:46;;;;;;;8.55;4.28;;;;;;;30.07;27.73;100185.34;5056520;28;20052;-75
2021/06/09 10:16:26;;;;;;;7.13;4.55;;;;;;;30.23;26.99;100189.50;5056355;28;20041;-75
2021/06/09 10:19:00;;;;;;;6.03;4.38;;;;;;;30.29;26.89;100185.84;5056191;28;20041;-75
2021/06/09 10:21:28;;;;;;;7.95;4.28;;;;;;;29.91;27.76;100183.94;5056221;28;20040;-74
2021/06/09 10:24:01;;;;;;;5.32;4.22;;;;;;;29.70;27.34;100178.75;5056137;28;20501;-76
2021/06/09 10:26:29;;;;;;;6.35;3.65;;;;;;;29.68;27.79;100186.38;5055949;28;20041;-76
2021/06/09 10:29:03;;;;;;;10.43;4.05;;;;;;;29.67;27.72;100181.97;5055916;28;20048;-76
2021/06/09 10:31:33;;;;;;;10.10;4.43;;;;;;;29.85;27.05;100182.06;5055764;28;20076;-76
2021/06/09 10:34:04;;;;;;;6.13;4.07;;;;;;;29.99;27.54;100189.19;5056441;28;20048;-76
2021/06/09 10:36:39;;;;;;;10.63;4.75;;;;;;;30.11;27.38;100190.22;5055710;28;20041;-76
2021/06/09 10:39:07;;;;;;;5.22;4.03;;;;;;;30.27;26.12;100185.22;5056004;28;20068;-76
2021/06/09 10:41:39;;;;;;;7.05;4.07;;;;;;;30.26;26.29;100184.38;5055554;28;20067;-76
2021/06/09 10:44:09;;;;;;;6.50;3.57;;;;;;;30.46;25.82;100185.06;5055633;28;20060;-76
2021/06/09 10:46:43;;;;;;;7.70;3.95;;;;;;;30.10;26.35;100190.41;5055732;28;20061;-76
2021/06/09 10:49:16;;;;;;;5.75;4.05;;;;;;;29.86;26.95;100176.34;5054881;28;20401;-75
2021/06/09 10:51:45;;;;;;;7.97;4.22;;;;;;;30.18;26.25;100184.66;5055702;28;20053;-76
2021/06/09 10:54:14;;;;;;;6.93;3.97;;;;;;;30.19;25.96;100181.66;5055619;28;20465;-75
2021/06/09 10:56:47;;;;;;;5.63;3.65;;;;;;;30.34;26.07;100175.88;5055890;28;20041;-75
2021/06/09 10:59:16;;;;;;;5.75;4.03;;;;;;;30.42;26.35;100175.59;5054391;28;20139;-76
2021/06/09 11:01:46;;;;;;;6.93;3.92;;;;;;;30.54;25.84;100166.63;5055224;28;20556;-76
2021/06/09 11:04:16;;;;;;;6.40;4.13;;;;;;;30.65;26.19;100165.91;5055337;28;20517;-75
2021/06/09 11:06:46;;;;;;;7.55;4.03;;;;;;;30.80;26.02;100168.31;5054954;28;20063;-75
2021/06/09 11:09:19;;;;;;;8.07;4.00;;;;;;;30.17;26.13;100167.31;5055367;28;20053;-76
2021/06/09 11:11:49;;;;;;;6.65;4.00;;;;;;;29.92;26.48;100169.16;5054611;28;20395;-76
2021/06/09 11:14:26;;;;;;;6.60;4.10;;;;;;;29.84;26.85;100166.66;5055254;28;20052;-76
2021/06/09 11:17:02;;;;;;;5.15;3.90;;;;;;;29.72;27.27;100163.72;5055323;28;20122;-76
2021/06/09 11:19:34;;;;;;;7.20;4.07;;;;;;;29.34;27.52;100158.19;5054755;28;20075;-76
2021/06/09 11:22:16;;;;;;;6.07;4.07;;;;;;;28.96;28.26;100158.06;5055397;28;20501;-76
2021/06/09 11:25:08;;;;;;;6.53;4.47;;;;;;;28.83;28.26;100156.13;5054781;28;20068;-76
2021/06/09 11:27:38;;;;;;;5.47;4.03;;;;;;;28.99;28.20;100154.88;5054674;28;20099;-77
2021/06/09 11:30:51;;;;;;;10.25;5.43;;;;;;;29.28;28.46;100154.38;5055142;28;20045;-75
2021/06/09 11:33:34;;;;;;;7.90;4.78;;;;;;;29.48;29.13;100157.09;5055006;28;20045;-76
2021/06/09 11:36:05;;;;;;;7.85;4.32;;;;;;;29.61;27.91;100158.91;5054731;28;20139;-75
2021/06/09 11:38:41;;;;;;;7.50;3.97;;;;;;;29.72;27.68;100155.47;5054501;28;20044;-75
2021/06/09 11:41:12;;;;;;;7.57;4.43;;;;;;;29.72;27.38;100149.97;5054852;28;20041;-75
2021/06/09 11:43:42;;;;;;;6.18;3.95;;;;;;;29.83;26.73;100148.47;5054314;28;20064;-75
2021/06/09 11:46:12;;;;;;;7.25;4.70;;;;;;;29.71;26.91;100141.97;5054627;28;20091;-75